首页
METAR-TAF:

METAR-TAF

机场 :

科纳克里国际机场

科納克里, 几内亚

纬度: 09-34N, 经度: 013-37W, 海拔: 26米

当前天气观测

该预报发布于1小时和24分钟前的17:00 UTC
风速6节,风向西南
温度 29°C
湿度 74%
气压 1009 hPa
能见度10公里或以上
散云层高于1500英尺
散云层高于11000英尺

METAR: GUCY 181700Z 23006KT 9999 SCT015 SCT110 29/24 Q1009 NOSIG

时间: 18:24 (18:24 UTC)

预报

该预报发布于1小时和24分钟前的17:00 UTC
预报有效从18日的 18点(UTC)到 19日的 24点(UTC)
风速6节,风向西南
能见度10公里或以上
少量云层高于1500英尺
散云层高于11000英尺
成为
从 19日的 02点(UTC)到 19日的 07点(UTC)
风速12节,风向
能見度: 8000
多云层高于1200英尺
少量云层高于2300英尺, 积雨云.
阴天层高于10000英尺
雷暴, 小雨

TAF: GUCY 181700Z 1818/1924 23006KT 9999 FEW015 SCT110 BECMG 1902/1907 18012KT 8000 -TSRA BKN012 FEW023CB OVC100

超过4000个机场的气象观测和天气预报(METAR&TAF报告)。

可查询的气象台以黄色和红色小点在地图上表示。

将鼠标移到小点上方,可查看气象台名称。

然后点击查看天气观测和预报。

如需切换地图:点击带黑十字的绿色按钮放大地图;点击带横线的绿色按钮缩小地图;或者点击绿色箭头查看邻近地区的地图。


METAR-TAF: